Time,TemperatureF,DewpointF,PressureIn,WindDirection,WindDirectionDegrees,WindSpeedMPH,WindSpeedGustMPH,Humidity,HourlyPrecipIn,Conditions,Clouds,dailyrainin,SoftwareType,DateUTC
2013-10-13 08:22:00,43.0,42.0,30.35,SE,129,0.0,-999.0,97,-99.99,,,-99.99,,2013-10-13 13:22:00,
2013-10-13 08:32:00,43.0,42.0,30.35,SE,129,0.0,-999.0,97,-99.99,,,-99.99,,2013-10-13 13:32:00,
2013-10-13 08:52:00,43.0,42.0,30.35,SE,129,0.0,-999.0,97,-99.99,,,-99.99,,2013-10-13 13:52:00,
2013-10-13 10:54:00,58.0,47.0,30.40,East,91,0.0,-999.0,68,-99.99,,,-99.99,,2013-10-13 15:54:00,
2013-10-13 11:12:00,57.0,47.0,30.39,SE,129,0.0,-999.0,70,-99.99,,,-99.99,,2013-10-13 16:12:00,
2013-10-13 11:24:00,58.0,47.0,30.40,East,91,0.0,-999.0,68,-99.99,,,-99.99,,2013-10-13 16:24:00,
2013-10-13 11:33:00,58.0,47.0,30.40,East,91,0.0,-999.0,68,-99.99,,,-99.99,,2013-10-13 16:33:00,
2013-10-13 11:43:00,58.0,47.0,30.40,East,91,0.0,-999.0,68,-99.99,,,-99.99,,2013-10-13 16:43:00,
2013-10-13 14:42:00,69.0,43.0,30.36,ESE,121,3.0,-999.0,39,-99.99,,,-99.99,,2013-10-13 19:42:00,
2013-10-13 14:53:00,68.0,45.0,30.36,ESE,104,2.0,-999.0,43,-99.99,,,-99.99,,2013-10-13 19:53:00,
2013-10-13 15:02:00,68.0,45.0,30.36,ESE,104,2.0,-999.0,43,-99.99,,,-99.99,,2013-10-13 20:02:00,
2013-10-13 15:12:00,68.0,45.0,30.36,ESE,104,2.0,-999.0,43,-99.99,,,-99.99,,2013-10-13 20:12:00,
2013-10-13 15:22:00,68.0,45.0,30.36,ESE,104,2.0,-999.0,43,-99.99,,,-99.99,,2013-10-13 20:22:00,
2013-10-13 16:55:00,70.0,43.0,30.32,East,94,1.0,-999.0,38,-99.99,,,-99.99,,2013-10-13 21:55:00,
2013-10-13 17:24:00,69.0,44.0,30.31,ESE,115,1.0,-999.0,41,-99.99,,,-99.99,,2013-10-13 22:24:00,
2013-10-13 17:43:00,68.0,45.0,30.31,North,355,0.0,-999.0,43,-99.99,,,-99.99,,2013-10-13 22:43:00,
2013-10-13 17:53:00,67.0,43.0,30.31,ESE,106,0.0,-999.0,42,-99.99,,,-99.99,,2013-10-13 22:53:00,
2013-10-13 18:12:00,66.0,45.0,30.29,ESE,106,0.0,-999.0,47,-99.99,,,-99.99,,2013-10-13 23:12:00,
2013-10-13 18:22:00,65.0,48.0,30.31,ESE,106,0.0,-999.0,54,-99.99,,,-99.99,,2013-10-13 23:22:00,
2013-10-13 20:42:00,52.0,49.0,30.31,ESE,106,0.0,-999.0,89,-99.99,,,-99.99,,2013-10-14 01:42:00,